Terminal Aerodrome Forecast
Issued by NWS Brownsville, TX

Home | Current Version | Previous Version | Text Only | Print | Product List | Glossary On
Versions: 1 2 3 4 5 6 7 8 9 10 11 12 13 14 15 16 17 18
000
FTUS44 KBRO 271740
TAFHRL
TAF
KHRL 271740Z 2718/2818 15014G20KT P6SM BKN050
     FM280000 15012KT P6SM SCT025
     FM280500 15010KT P6SM BKN015
     FM281400 15015KT P6SM SCT025 BKN250
     FM281600 16018G25KT P6SM SCT040 BKN250=

USA.gov is the U.S. government's official web portal to all federal, state and local government web resources and services.